Time;durP1;ratioP1;P1;durP2;ratioP2;P2;SDS_P1;SDS_P2;PMS_P1;PMS_P2;Temp;Humidity;BMP_temperature;BMP_pressure;BME280_temperature;BME280_humidity;BME280_pressure;Samples;Min_cycle;Max_cycle;Signal;HPM_P1;HPM_P2
2023/09/14 00:01:12;;;;;;;2.90;1.40;;;17.50;99.90;;;;;;5045698;28;20714;-67
2023/09/14 00:03:38;;;;;;;3.22;1.88;;;17.40;99.90;;;;;;5050367;28;20040;-67
2023/09/14 00:06:04;;;;;;;2.00;1.42;;;17.40;99.90;;;;;;5047526;28;20037;-67
2023/09/14 00:08:30;;;;;;;5.80;2.00;;;17.40;99.90;;;;;;5048072;28;20037;-67
2023/09/14 00:11:02;;;;;;;5.10;1.95;;;17.50;99.90;;;;;;5046165;28;20045;-67
2023/09/14 00:13:28;;;;;;;2.97;1.50;;;17.50;99.90;;;;;;5052544;28;20055;-67
2023/09/14 00:15:53;;;;;;;5.22;1.60;;;17.40;99.90;;;;;;5049066;28;20037;-67
2023/09/14 00:18:20;;;;;;;2.92;1.52;;;17.40;99.90;;;;;;5053245;28;20035;-67
2023/09/14 00:20:46;;;;;;;5.22;1.67;;;17.40;99.90;;;;;;5045214;28;20537;-67
2023/09/14 00:23:11;;;;;;;2.65;1.60;;;17.40;99.90;;;;;;5045264;28;20043;-67
2023/09/14 00:25:37;;;;;;;2.67;1.70;;;17.40;99.90;;;;;;5050240;28;20126;-67
2023/09/14 00:28:03;;;;;;;2.65;1.67;;;17.40;99.90;;;;;;5049359;28;20483;-67
2023/09/14 00:30:29;;;;;;;5.55;2.00;;;17.40;99.90;;;;;;5041633;28;20037;-67
2023/09/14 00:32:55;;;;;;;3.60;1.80;;;17.40;99.90;;;;;;5038337;28;20052;-67
2023/09/14 00:35:21;;;;;;;6.85;1.75;;;17.40;99.90;;;;;;5046996;28;20029;-66
2023/09/14 00:37:47;;;;;;;4.15;1.70;;;17.40;99.90;;;;;;5056606;28;20049;-67
2023/09/14 00:40:14;;;;;;;8.45;1.85;;;17.40;99.90;;;;;;5045295;28;20029;-67
2023/09/14 00:42:42;;;;;;;3.88;1.58;;;17.30;99.90;;;;;;5044929;28;20041;-67
2023/09/14 00:45:10;;;;;;;4.35;2.20;;;17.30;99.90;;;;;;5032934;28;20828;-66
2023/09/14 00:47:37;;;;;;;6.03;1.70;;;17.30;99.90;;;;;;5038082;28;20071;-66
2023/09/14 00:50:07;;;;;;;3.33;1.65;;;17.30;99.90;;;;;;5041166;28;20037;-66
2023/09/14 00:52:35;;;;;;;3.17;1.88;;;17.30;99.90;;;;;;5058728;28;20803;-67
2023/09/14 00:55:04;;;;;;;5.03;1.60;;;17.20;99.90;;;;;;5039598;28;20029;-67
2023/09/14 00:57:30;;;;;;;3.72;2.15;;;17.20;99.90;;;;;;5044081;28;20033;-67
2023/09/14 00:59:56;;;;;;;3.60;1.92;;;17.20;99.90;;;;;;5037772;28;20037;-67
2023/09/14 01:02:23;;;;;;;2.88;1.70;;;17.10;99.90;;;;;;5038228;28;20057;-67
2023/09/14 01:04:49;;;;;;;6.38;2.10;;;17.10;99.90;;;;;;5036746;28;20033;-67
2023/09/14 01:07:15;;;;;;;2.53;1.77;;;17.00;99.90;;;;;;5044603;28;20032;-67
2023/09/14 01:09:41;;;;;;;3.40;1.50;;;17.00;99.90;;;;;;5045796;28;20574;-67
2023/09/14 01:12:10;;;;;;;4.25;1.83;;;16.90;99.90;;;;;;5047046;28;20032;-67
2023/09/14 01:14:50;;;;;;;5.25;1.92;;;16.90;99.90;;;;;;5045461;28;20040;-67
2023/09/14 01:17:19;;;;;;;5.40;1.83;;;16.80;99.90;;;;;;5050146;28;20060;-67
2023/09/14 01:20:30;;;;;;;4.03;1.83;;;16.70;99.90;;;;;;5046477;28;20039;-67
2023/09/14 01:23:17;;;;;;;4.60;1.92;;;16.70;99.90;;;;;;4975200;28;20118;-67
2023/09/14 01:25:45;;;;;;;;;;;16.50;99.90;;;;;;5037359;28;20053;-67
2023/09/14 01:28:13;;;;;;;4.22;2.10;;;16.50;99.90;;;;;;5043446;28;19919;-66
2023/09/14 01:30:44;;;;;;;3.83;1.73;;;16.40;99.90;;;;;;5039744;28;20071;-67
2023/09/14 01:33:13;;;;;;;2.65;1.55;;;16.30;99.90;;;;;;5052154;28;20033;-67
2023/09/14 01:36:03;;;;;;;6.85;1.85;;;16.30;99.90;;;;;;5053640;28;20040;-67
2023/09/14 01:38:31;;;;;;;2.75;1.40;;;16.20;99.90;;;;;;5049190;28;20611;-67
2023/09/14 01:40:58;;;;;;;5.15;1.60;;;16.10;99.90;;;;;;5047963;28;20051;-67
2023/09/14 01:43:25;;;;;;;5.97;1.67;;;16.00;99.90;;;;;;5039401;28;20025;-67
2023/09/14 01:45:51;;;;;;;2.20;1.50;;;16.00;99.90;;;;;;5038680;28;20029;-67
2023/09/14 01:48:19;;;;;;;3.33;1.60;;;16.00;99.90;;;;;;5045446;28;20783;-67
2023/09/14 01:50:45;;;;;;;4.40;1.75;;;15.90;99.90;;;;;;5044353;28;20075;-67
2023/09/14 01:53:12;;;;;;;4.47;1.95;;;15.80;99.90;;;;;;5055728;28;20757;-67
2023/09/14 01:55:38;;;;;;;3.60;1.60;;;15.80;99.90;;;;;;5041904;28;20561;-67
2023/09/14 01:58:04;;;;;;;3.05;2.00;;;15.70;99.90;;;;;;5020308;28;20061;-67
2023/09/14 02:00:30;;;;;;;1.70;1.30;;;15.70;99.90;;;;;;5043979;28;20032;-67
2023/09/14 02:02:56;;;;;;;3.97;1.75;;;15.70;99.90;;;;;;5039766;28;20029;-66
2023/09/14 02:05:21;;;;;;;3.28;1.30;;;15.60;99.90;;;;;;5045108;28;20036;-67
2023/09/14 02:07:47;;;;;;;3.00;1.73;;;15.50;99.90;;;;;;5059085;28;20107;-67
2023/09/14 02:10:14;;;;;;;3.40;1.50;;;15.50;99.90;;;;;;5047962;28;20035;-67
2023/09/14 02:12:40;;;;;;;5.70;1.75;;;15.40;99.90;;;;;;5039275;28;20854;-67
2023/09/14 02:15:08;;;;;;;2.30;1.30;;;15.30;99.90;;;;;;5037827;28;20029;-67
2023/09/14 02:17:37;;;;;;;4.95;1.60;;;15.30;99.90;;;;;;5037484;28;20051;-67
2023/09/14 02:20:08;;;;;;;3.40;1.70;;;15.20;99.90;;;;;;5037738;28;20025;-67
2023/09/14 02:22:33;;;;;;;3.97;1.85;;;15.20;99.90;;;;;;5044059;28;20021;-67
2023/09/14 02:24:59;;;;;;;3.70;1.65;;;15.20;99.90;;;;;;5043916;28;20056;-67
2023/09/14 02:27:25;;;;;;;2.90;1.90;;;15.20;99.90;;;;;;5047083;28;20213;-67
2023/09/14 02:29:55;;;;;;;3.75;1.83;;;15.10;99.90;;;;;;5037207;28;20037;-66
2023/09/14 02:32:21;;;;;;;4.35;1.65;;;15.10;99.90;;;;;;5040966;28;20366;-67
2023/09/14 02:34:48;;;;;;;3.95;1.80;;;15.10;99.90;;;;;;5037459;28;20241;-67
2023/09/14 02:37:14;;;;;;;3.40;1.80;;;15.00;99.90;;;;;;5045654;28;20133;-67
2023/09/14 02:39:40;;;;;;;4.72;1.60;;;15.00;99.90;;;;;;5037329;28;20033;-67
2023/09/14 02:42:06;;;;;;;4.10;2.13;;;15.00;99.90;;;;;;5057535;28;20028;-67
2023/09/14 02:44:32;;;;;;;2.95;1.98;;;15.00;99.90;;;;;;5043688;28;20029;-67
2023/09/14 02:46:58;;;;;;;3.00;1.90;;;14.90;99.90;;;;;;5053364;28;20084;-67
2023/09/14 02:49:23;;;;;;;2.83;1.55;;;14.90;99.90;;;;;;5037085;28;20032;-67
2023/09/14 02:51:51;;;;;;;2.30;1.42;;;14.90;99.90;;;;;;5047439;28;20044;-67
2023/09/14 02:54:18;;;;;;;4.18;1.77;;;14.80;99.90;;;;;;5040880;28;20028;-67
2023/09/14 02:56:44;;;;;;;2.67;1.60;;;14.80;99.90;;;;;;5044335;28;20052;-67
2023/09/14 02:59:10;;;;;;;2.88;2.10;;;14.70;99.90;;;;;;5036093;28;20373;-68
2023/09/14 03:01:36;;;;;;;4.47;1.50;;;14.70;99.90;;;;;;5036803;28;20028;-67
2023/09/14 03:04:04;;;;;;;3.50;1.63;;;14.70;99.90;;;;;;5039488;28;20040;-67
2023/09/14 03:06:29;;;;;;;5.95;2.08;;;14.70;99.90;;;;;;5052223;28;20032;-67
2023/09/14 03:08:56;;;;;;;2.30;1.67;;;14.60;99.90;;;;;;5038614;28;20714;-67
2023/09/14 03:11:22;;;;;;;6.47;2.13;;;14.60;99.90;;;;;;5040611;28;20025;-67
2023/09/14 03:13:47;;;;;;;6.53;2.28;;;14.60;99.90;;;;;;5061583;28;20033;-67
2023/09/14 03:16:13;;;;;;;5.22;2.13;;;14.60;99.90;;;;;;5045001;28;20025;-66
2023/09/14 03:18:39;;;;;;;3.92;1.98;;;14.60;99.90;;;;;;5046337;28;20106;-66
2023/09/14 03:21:05;;;;;;;4.95;2.03;;;14.50;99.90;;;;;;5036758;28;20064;-67
2023/09/14 03:23:32;;;;;;;4.80;2.20;;;14.50;99.90;;;;;;5036134;28;20697;-67
2023/09/14 03:25:57;;;;;;;4.22;2.15;;;14.50;99.90;;;;;;5036492;28;20082;-66
2023/09/14 03:28:23;;;;;;;4.05;1.95;;;14.40;99.90;;;;;;5037198;28;20140;-66
2023/09/14 03:30:49;;;;;;;5.63;2.20;;;14.40;99.90;;;;;;5056860;28;20089;-66
2023/09/14 03:33:15;;;;;;;5.35;2.22;;;14.30;99.90;;;;;;5046086;28;20039;-67
2023/09/14 03:35:41;;;;;;;6.93;2.40;;;14.30;99.90;;;;;;5046326;28;20025;-67
2023/09/14 03:38:07;;;;;;;2.92;2.05;;;14.30;99.90;;;;;;5032584;28;20493;-66
2023/09/14 03:40:33;;;;;;;8.20;2.40;;;14.30;99.90;;;;;;5046063;28;20025;-67
2023/09/14 03:42:59;;;;;;;5.38;2.33;;;14.30;99.90;;;;;;5040474;28;20773;-66
2023/09/14 03:45:25;;;;;;;5.05;2.10;;;14.30;99.90;;;;;;5044559;28;20025;-67
2023/09/14 03:47:51;;;;;;;5.53;2.42;;;14.20;99.90;;;;;;5045923;28;20060;-67
2023/09/14 03:50:17;;;;;;;3.90;2.10;;;14.20;99.90;;;;;;5046054;28;20037;-66
2023/09/14 03:52:43;;;;;;;2.63;1.75;;;14.20;99.90;;;;;;5035885;28;20028;-67
2023/09/14 03:55:09;;;;;;;4.30;1.95;;;14.10;99.90;;;;;;5036110;28;20068;-66
2023/09/14 03:57:35;;;;;;;3.95;2.22;;;14.10;99.90;;;;;;5035879;28;20098;-67
2023/09/14 04:00:09;;;;;;;2.47;1.85;;;14.10;99.90;;;;;;5037894;28;20063;-67
2023/09/14 04:02:39;;;;;;;;;;;14.10;99.90;;;;;;5047385;28;20033;-67
2023/09/14 04:05:16;;;;;;;3.45;1.98;;;14.10;99.90;;;;;;5041381;28;19924;-67
2023/09/14 04:07:44;;;;;;;3.85;2.10;;;14.00;99.90;;;;;;5038198;28;20529;-67
2023/09/14 04:10:10;;;;;;;3.75;2.08;;;14.00;99.90;;;;;;5041147;28;20033;-67
2023/09/14 04:12:38;;;;;;;6.93;2.30;;;13.90;99.90;;;;;;5045422;28;20032;-67
2023/09/14 04:15:04;;;;;;;6.03;2.58;;;13.90;99.90;;;;;;5035429;28;20029;-66
2023/09/14 04:17:30;;;;;;;6.20;1.92;;;13.90;99.90;;;;;;5045039;28;20485;-67
2023/09/14 04:19:56;;;;;;;5.20;2.63;;;13.90;99.90;;;;;;5042719;28;20056;-67
2023/09/14 04:22:22;;;;;;;4.47;2.25;;;13.80;99.90;;;;;;5051529;28;20053;-67
2023/09/14 04:24:49;;;;;;;5.03;2.30;;;13.80;99.90;;;;;;5035626;28;20552;-67
2023/09/14 04:27:15;;;;;;;5.45;2.20;;;13.80;99.90;;;;;;5041515;28;20060;-67
2023/09/14 04:29:42;;;;;;;2.53;1.73;;;13.70;99.90;;;;;;5035584;28;20053;-67
2023/09/14 04:32:08;;;;;;;4.45;2.20;;;13.70;99.90;;;;;;5040915;28;20041;-67
2023/09/14 04:34:34;;;;;;;6.30;2.40;;;13.70;99.90;;;;;;5043573;28;20028;-66
2023/09/14 04:37:00;;;;;;;4.32;2.20;;;13.60;99.90;;;;;;5035336;28;20033;-66
2023/09/14 04:39:27;;;;;;;3.53;2.00;;;13.70;99.90;;;;;;5034922;28;20029;-67
2023/09/14 04:41:53;;;;;;;3.92;2.17;;;13.70;99.90;;;;;;5037039;28;20021;-67
2023/09/14 04:44:19;;;;;;;4.13;2.03;;;13.60;99.90;;;;;;5039067;28;20029;-67
2023/09/14 04:46:45;;;;;;;4.45;2.03;;;13.60;99.90;;;;;;5042716;28;20698;-66
2023/09/14 04:49:12;;;;;;;4.93;2.40;;;13.60;99.90;;;;;;5035014;28;20033;-67
2023/09/14 04:51:38;;;;;;;4.68;2.80;;;13.60;99.90;;;;;;5037864;28;20051;-67
2023/09/14 04:54:04;;;;;;;3.10;2.30;;;13.50;99.90;;;;;;5042893;28;20568;-67
2023/09/14 04:56:30;;;;;;;7.10;2.28;;;13.60;99.90;;;;;;5037061;28;20040;-67
2023/09/14 04:58:57;;;;;;;4.97;2.58;;;13.50;99.90;;;;;;5034722;28;20021;-67
2023/09/14 05:01:22;;;;;;;3.03;2.25;;;13.50;99.90;;;;;;5035308;28;20440;-66
2023/09/14 05:03:49;;;;;;;4.15;2.20;;;13.50;99.90;;;;;;5042797;28;20028;-67
2023/09/14 05:06:15;;;;;;;3.05;1.92;;;13.50;99.90;;;;;;5034836;28;20029;-67
2023/09/14 05:08:40;;;;;;;4.38;2.45;;;13.60;99.90;;;;;;5036438;28;20029;-67
2023/09/14 05:11:06;;;;;;;3.67;2.28;;;13.60;99.90;;;;;;5041027;28;20029;-66
2023/09/14 05:13:32;;;;;;;4.30;2.47;;;13.60;99.90;;;;;;5040035;28;20033;-67
2023/09/14 05:15:58;;;;;;;5.20;2.47;;;13.50;99.90;;;;;;5051796;28;20400;-67
2023/09/14 05:18:26;;;;;;;4.90;2.63;;;13.60;99.90;;;;;;5045975;28;20507;-67
2023/09/14 05:20:52;;;;;;;4.18;2.45;;;13.60;99.90;;;;;;5035006;28;20078;-67
2023/09/14 05:23:18;;;;;;;3.33;2.28;;;13.60;99.90;;;;;;5044436;28;20021;-67
2023/09/14 05:25:45;;;;;;;5.97;2.45;;;13.60;99.90;;;;;;5034572;28;20036;-67
2023/09/14 05:28:12;;;;;;;4.88;2.20;;;13.60;99.90;;;;;;5034564;28;20033;-67
2023/09/14 05:30:39;;;;;;;2.45;2.15;;;13.60;99.90;;;;;;5045155;28;20036;-67
2023/09/14 05:33:07;;;;;;;5.35;2.83;;;13.60;99.90;;;;;;5040129;28;20481;-67
2023/09/14 05:35:33;;;;;;;6.05;2.13;;;13.60;99.90;;;;;;5041376;28;20024;-66
2023/09/14 05:37:59;;;;;;;3.92;2.15;;;13.60;99.90;;;;;;5041400;28;20033;-66
2023/09/14 05:40:25;;;;;;;2.63;1.95;;;13.70;99.90;;;;;;5031692;28;20056;-67
2023/09/14 05:42:51;;;;;;;3.47;2.25;;;13.70;99.90;;;;;;5046212;28;20754;-67
2023/09/14 05:45:17;;;;;;;3.58;2.42;;;13.70;99.90;;;;;;5048431;28;20031;-67
2023/09/14 05:47:45;;;;;;;3.85;2.30;;;13.70;99.90;;;;;;5034541;28;20112;-66
2023/09/14 05:50:12;;;;;;;4.68;2.35;;;13.80;99.90;;;;;;5044233;28;20029;-66
2023/09/14 05:52:38;;;;;;;3.75;2.13;;;13.80;99.90;;;;;;5034494;28;20052;-67
2023/09/14 05:55:05;;;;;;;5.53;2.42;;;13.80;99.90;;;;;;5036519;28;20029;-67
2023/09/14 05:57:31;;;;;;;4.80;2.67;;;13.90;99.90;;;;;;5034161;28;20029;-67
2023/09/14 05:59:59;;;;;;;4.43;2.70;;;13.90;99.90;;;;;;5038299;28;20243;-67
2023/09/14 06:02:26;;;;;;;6.00;2.65;;;13.90;99.90;;;;;;5058137;28;20028;-66
2023/09/14 06:04:53;;;;;;;5.20;2.67;;;14.00;99.90;;;;;;5041189;28;20028;-67
2023/09/14 06:07:19;;;;;;;4.40;2.47;;;14.00;99.90;;;;;;5049311;28;20434;-67
2023/09/14 06:09:44;;;;;;;4.05;2.38;;;14.10;99.90;;;;;;5038430;28;20052;-67
2023/09/14 06:12:10;;;;;;;7.45;2.90;;;14.10;99.90;;;;;;5038030;28;20495;-66
2023/09/14 06:14:37;;;;;;;4.55;2.80;;;14.20;99.90;;;;;;5043926;28;20033;-67
2023/09/14 06:17:03;;;;;;;5.82;2.63;;;14.20;99.90;;;;;;5051050;28;20039;-67
2023/09/14 06:19:29;;;;;;;3.28;2.05;;;14.30;99.90;;;;;;5047429;28;20115;-67
2023/09/14 06:21:55;;;;;;;5.60;2.72;;;14.30;99.90;;;;;;5047509;28;20100;-66
2023/09/14 06:24:21;;;;;;;4.82;2.65;;;14.40;99.90;;;;;;5054049;28;20024;-67
2023/09/14 06:26:48;;;;;;;6.15;2.50;;;14.40;99.90;;;;;;5047898;28;20525;-66
2023/09/14 06:29:15;;;;;;;4.90;2.53;;;14.50;99.90;;;;;;5047178;28;20035;-67
2023/09/14 06:31:42;;;;;;;8.55;3.10;;;14.50;99.90;;;;;;5052597;28;20032;-67
2023/09/14 06:34:08;;;;;;;5.13;2.88;;;14.60;99.90;;;;;;5057448;28;20032;-67
2023/09/14 06:36:34;;;;;;;4.60;2.50;;;14.70;99.90;;;;;;5049584;28;20044;-67
2023/09/14 06:39:00;;;;;;;4.35;2.75;;;14.70;99.90;;;;;;5052072;28;20032;-66
2023/09/14 06:41:25;;;;;;;4.65;2.55;;;14.80;99.90;;;;;;5058496;28;20028;-67
2023/09/14 06:43:51;;;;;;;3.75;2.63;;;14.80;99.90;;;;;;5047222;28;20059;-67
2023/09/14 06:46:17;;;;;;;4.68;2.55;;;14.90;99.90;;;;;;5047224;28;20090;-67
2023/09/14 06:48:43;;;;;;;4.00;2.40;;;14.90;99.90;;;;;;5048834;28;20032;-67
2023/09/14 06:51:08;;;;;;;6.28;3.53;;;15.00;99.90;;;;;;5053695;28;20062;-67
2023/09/14 06:53:35;;;;;;;8.45;2.72;;;15.10;99.90;;;;;;5043454;28;20029;-67
2023/09/14 06:56:08;;;;;;;4.63;2.67;;;15.30;99.90;;;;;;5049861;28;20140;-67
2023/09/14 06:58:34;;;;;;;8.90;3.15;;;15.50;99.90;;;;;;5051730;28;20033;-67
2023/09/14 07:01:05;;;;;;;8.00;2.70;;;15.60;99.90;;;;;;5047036;28;20074;-67
2023/09/14 07:03:32;;;;;;;3.88;2.47;;;15.70;99.90;;;;;;5046349;28;20383;-67
2023/09/14 07:05:58;;;;;;;5.55;2.70;;;15.80;99.90;;;;;;5051345;28;20060;-67
2023/09/14 07:08:25;;;;;;;5.55;2.90;;;15.90;99.90;;;;;;5051195;28;20041;-67
2023/09/14 07:10:50;;;;;;;7.40;3.22;;;16.10;99.90;;;;;;5053392;28;20465;-67
2023/09/14 07:13:17;;;;;;;4.90;3.03;;;16.40;99.90;;;;;;5046562;28;20119;-67
2023/09/14 07:15:43;;;;;;;3.53;2.55;;;16.60;99.90;;;;;;5064007;28;20064;-67
2023/09/14 07:18:23;;;;;;;4.93;2.80;;;16.70;99.90;;;;;;5052205;28;20024;-67
2023/09/14 07:20:49;;;;;;;6.30;3.10;;;16.70;99.90;;;;;;5049357;28;20040;-67
2023/09/14 07:23:15;;;;;;;7.10;3.03;;;16.70;99.90;;;;;;5048349;28;20021;-67
2023/09/14 07:25:41;;;;;;;7.43;2.88;;;16.80;99.90;;;;;;5047890;28;20060;-67
2023/09/14 07:28:06;;;;;;;6.72;2.33;;;16.80;99.90;;;;;;5049893;28;20027;-67
2023/09/14 07:30:35;;;;;;;4.00;2.53;;;16.90;99.90;;;;;;5048898;28;20025;-67
2023/09/14 07:33:00;;;;;;;6.40;2.65;;;17.00;99.90;;;;;;5046822;28;20052;-67
2023/09/14 07:35:26;;;;;;;5.75;2.88;;;17.10;99.90;;;;;;5048570;28;20159;-67
2023/09/14 07:37:52;;;;;;;6.05;2.83;;;17.20;99.90;;;;;;5047225;28;20119;-67
2023/09/14 07:40:18;;;;;;;3.72;2.45;;;17.30;99.90;;;;;;5052454;28;20013;-67
2023/09/14 07:42:43;;;;;;;7.88;2.70;;;17.40;99.90;;;;;;5046284;28;20086;-67
2023/09/14 07:45:09;;;;;;;5.32;3.00;;;17.50;99.90;;;;;;5057749;28;20032;-67
2023/09/14 07:47:35;;;;;;;8.68;3.30;;;17.60;99.90;;;;;;5040965;28;20030;-67
2023/09/14 07:50:02;;;;;;;8.23;3.00;;;17.70;99.90;;;;;;5043733;28;20052;-67
2023/09/14 07:52:28;;;;;;;5.13;3.45;;;17.70;99.90;;;;;;5046121;28;20039;-67
2023/09/14 07:54:54;;;;;;;9.18;2.92;;;17.80;99.90;;;;;;5054616;28;20513;-67
2023/09/14 07:57:20;;;;;;;8.50;3.45;;;17.80;99.90;;;;;;5049701;28;20036;-67
2023/09/14 07:59:46;;;;;;;5.50;3.30;;;17.90;99.90;;;;;;5055258;28;20028;-67
2023/09/14 08:02:11;;;;;;;4.40;2.90;;;17.80;99.90;;;;;;5044260;28;20028;-67
2023/09/14 08:04:38;;;;;;;5.07;2.67;;;17.80;99.90;;;;;;5045652;28;20136;-67
2023/09/14 08:07:04;;;;;;;4.40;2.58;;;17.80;99.90;;;;;;5051208;28;20039;-67
2023/09/14 08:09:29;;;;;;;5.68;2.83;;;17.80;99.90;;;;;;5048724;28;20033;-67
2023/09/14 08:11:55;;;;;;;6.15;3.08;;;17.70;99.90;;;;;;5045299;28;20037;-67
2023/09/14 08:14:21;;;;;;;6.05;2.80;;;17.70;99.90;;;;;;5052591;28;20423;-68
2023/09/14 08:16:47;;;;;;;7.82;2.88;;;17.70;99.90;;;;;;5051071;28;20028;-67
2023/09/14 08:19:13;;;;;;;3.65;2.40;;;17.70;99.90;;;;;;5049791;28;20039;-67
2023/09/14 08:21:38;;;;;;;5.60;2.83;;;17.70;99.90;;;;;;5046865;28;20029;-67
2023/09/14 08:24:04;;;;;;;4.85;2.42;;;17.70;99.90;;;;;;5057655;28;20048;-67
2023/09/14 08:26:30;;;;;;;5.80;2.55;;;17.70;99.90;;;;;;5051482;28;20519;-67
2023/09/14 08:28:56;;;;;;;6.88;2.42;;;17.70;99.90;;;;;;5045101;28;20017;-67
2023/09/14 08:31:22;;;;;;;8.45;3.25;;;17.80;99.90;;;;;;5044172;28;20037;-67
2023/09/14 08:33:47;;;;;;;6.30;2.70;;;17.80;99.90;;;;;;5050280;28;20032;-67
2023/09/14 08:36:13;;;;;;;8.35;2.55;;;17.90;99.90;;;;;;5057325;28;20036;-67
2023/09/14 08:38:39;;;;;;;5.88;2.50;;;17.90;99.90;;;;;;5053538;28;20020;-67
2023/09/14 08:41:17;;;;;;;4.50;2.60;;;18.00;99.90;;;;;;5048015;28;20025;-67
2023/09/14 08:43:45;;;;;;;8.88;2.58;;;18.10;99.90;;;;;;5053887;28;20110;-67
2023/09/14 08:46:11;;;;;;;7.10;2.60;;;18.20;99.90;;;;;;5045403;28;20437;-67
2023/09/14 08:48:42;;;;;;;3.53;2.00;;;18.30;99.90;;;;;;5049962;28;20028;-67
2023/09/14 08:51:10;;;;;;;4.15;2.28;;;18.40;99.90;;;;;;5050226;28;20058;-67
2023/09/14 08:53:37;;;;;;;2.72;1.92;;;18.40;99.90;;;;;;5047398;28;20533;-67
2023/09/14 08:56:05;;;;;;;3.08;1.95;;;18.50;99.90;;;;;;5051458;28;20029;-67
2023/09/14 08:58:32;;;;;;;4.50;2.00;;;18.60;99.90;;;;;;5045927;28;20017;-67
2023/09/14 09:00:59;;;;;;;2.88;1.70;;;18.80;99.90;;;;;;5050387;28;20021;-67
2023/09/14 09:03:25;;;;;;;3.22;2.03;;;18.90;99.70;;;;;;5049363;28;20033;-67
2023/09/14 09:05:51;;;;;;;2.65;1.60;;;18.90;99.60;;;;;;5050824;28;20025;-67
2023/09/14 09:08:17;;;;;;;4.78;1.85;;;18.80;99.80;;;;;;5048257;28;20036;-67
2023/09/14 09:10:43;;;;;;;6.63;2.03;;;18.80;99.90;;;;;;5044422;28;20025;-67
2023/09/14 09:13:09;;;;;;;5.20;1.60;;;18.80;99.90;;;;;;5044281;28;20024;-67
2023/09/14 09:15:39;;;;;;;4.72;1.48;;;18.80;99.90;;;;;;5053985;28;20033;-67
2023/09/14 09:18:07;;;;;;;4.15;1.77;;;18.90;99.90;;;;;;5046391;28;20040;-67
2023/09/14 09:20:35;;;;;;;3.33;1.48;;;19.00;99.80;;;;;;5052989;28;20029;-68
2023/09/14 09:23:01;;;;;;;2.80;1.40;;;19.10;99.30;;;;;;5044183;28;20032;-67
2023/09/14 09:25:31;;;;;;;2.17;1.50;;;19.10;99.50;;;;;;5056069;28;20515;-67
2023/09/14 09:28:01;;;;;;;1.58;1.08;;;19.20;99.70;;;;;;5045249;28;20044;-67
2023/09/14 09:30:31;;;;;;;2.17;1.40;;;19.20;99.40;;;;;;5048027;28;20048;-67
2023/09/14 09:32:58;;;;;;;2.55;1.60;;;19.20;99.30;;;;;;5052973;28;20032;-67
2023/09/14 09:35:26;;;;;;;3.88;1.48;;;19.30;99.20;;;;;;5055254;28;20655;-67
2023/09/14 09:37:53;;;;;;;2.97;1.42;;;19.30;99.20;;;;;;5052046;28;20029;-67
2023/09/14 09:40:21;;;;;;;5.28;1.38;;;19.30;99.10;;;;;;5056116;28;20025;-67
2023/09/14 09:42:47;;;;;;;4.80;1.58;;;19.40;98.60;;;;;;5055571;28;20055;-67
2023/09/14 09:45:14;;;;;;;1.98;1.20;;;19.60;98.40;;;;;;5049219;28;20029;-67
2023/09/14 09:47:41;;;;;;;4.15;1.27;;;19.70;97.70;;;;;;5046228;28;20117;-68
2023/09/14 09:50:09;;;;;;;3.25;1.17;;;19.90;97.00;;;;;;5047884;28;20064;-68
2023/09/14 09:52:36;;;;;;;2.33;1.02;;;19.90;97.00;;;;;;5048095;28;20029;-68
2023/09/14 09:55:04;;;;;;;1.67;1.20;;;19.90;96.60;;;;;;5052037;28;20052;-67
2023/09/14 09:57:33;;;;;;;1.60;1.15;;;19.90;96.60;;;;;;5050593;28;20485;-67
2023/09/14 10:00:12;;;;;;;4.40;1.20;;;19.90;96.90;;;;;;5050147;28;20044;-67
2023/09/14 10:02:39;;;;;;;4.60;1.40;;;19.90;97.30;;;;;;5061977;28;20043;-68
2023/09/14 10:05:05;;;;;;;2.22;1.30;;;20.00;96.90;;;;;;5048040;28;20017;-68
2023/09/14 10:07:42;;;;;;;4.47;1.38;;;20.20;95.10;;;;;;5055509;28;20051;-68
2023/09/14 10:10:11;;;;;;;2.70;1.20;;;20.70;94.60;;;;;;5057335;28;20029;-67
2023/09/14 10:12:39;;;;;;;2.75;1.30;;;21.20;94.20;;;;;;5048003;28;20033;-67
2023/09/14 10:15:06;;;;;;;3.97;1.05;;;21.40;93.30;;;;;;5047891;28;20041;-67
2023/09/14 10:17:32;;;;;;;2.65;1.40;;;21.40;93.90;;;;;;5051203;28;20033;-68
2023/09/14 10:20:06;;;;;;;3.78;1.05;;;21.50;93.80;;;;;;5051618;28;20021;-67
2023/09/14 10:22:32;;;;;;;5.90;1.70;;;21.50;93.70;;;;;;5047782;28;20021;-67
2023/09/14 10:24:58;;;;;;;3.67;1.30;;;21.70;92.50;;;;;;5052839;28;20083;-67
2023/09/14 10:27:29;;;;;;;4.57;1.10;;;22.10;91.90;;;;;;5047510;28;20120;-67
2023/09/14 10:29:58;;;;;;;3.10;1.23;;;22.30;89.10;;;;;;5041139;28;20115;-68
2023/09/14 10:32:25;;;;;;;3.35;1.08;;;22.50;90.10;;;;;;5047453;28;20028;-68
2023/09/14 10:34:52;;;;;;;3.70;1.38;;;22.50;88.60;;;;;;5047202;28;20029;-69
2023/09/14 10:37:20;;;;;;;4.30;1.45;;;22.50;90.00;;;;;;5056010;28;20635;-68
2023/09/14 10:39:46;;;;;;;3.92;1.42;;;22.50;91.60;;;;;;5047119;28;20476;-67
2023/09/14 10:42:12;;;;;;;1.13;0.85;;;22.60;90.30;;;;;;5051001;28;20711;-67
2023/09/14 10:44:38;;;;;;;3.35;1.30;;;22.70;88.70;;;;;;5046519;28;20079;-67
2023/09/14 10:47:06;;;;;;;1.75;1.13;;;22.50;85.20;;;;;;5052538;28;20032;-67
2023/09/14 10:49:34;;;;;;;2.60;1.15;;;22.60;87.80;;;;;;5058836;28;20442;-67
2023/09/14 10:52:01;;;;;;;3.78;1.38;;;22.80;86.90;;;;;;5052743;28;20475;-68
2023/09/14 10:54:30;;;;;;;4.40;1.10;;;22.80;85.90;;;;;;5050953;28;20268;-67
2023/09/14 10:57:00;;;;;;;2.75;1.10;;;22.80;84.10;;;;;;5043077;28;20035;-67
2023/09/14 10:59:46;;;;;;;3.45;1.30;;;22.70;83.30;;;;;;5048522;28;20029;-68
2023/09/14 11:02:11;;;;;;;2.90;1.38;;;22.50;85.40;;;;;;5052504;28;20488;-67
2023/09/14 11:05:10;;;;;;;3.08;0.90;;;22.30;84.40;;;;;;5054163;28;20036;-67
2023/09/14 11:07:41;;;;;;;2.97;1.40;;;22.20;87.80;;;;;;5054757;28;20397;-67
2023/09/14 11:10:09;;;;;;;1.73;1.00;;;22.20;87.60;;;;;;5057233;28;20097;-68
2023/09/14 11:12:35;;;;;;;3.95;1.50;;;22.20;87.60;;;;;;5055032;28;20101;-68
2023/09/14 11:15:14;;;;;;;3.17;1.42;;;22.30;87.20;;;;;;5047940;28;20166;-68
2023/09/14 11:17:43;;;;;;;2.85;1.02;;;22.30;83.90;;;;;;5050660;28;20566;-68
2023/09/14 11:20:25;;;;;;;4.50;1.40;;;22.40;85.40;;;;;;5040903;28;20116;-68
2023/09/14 11:22:52;;;;;;;2.58;1.20;;;22.30;85.40;;;;;;5049348;28;20028;-68
2023/09/14 11:25:25;;;;;;;5.20;1.50;;;22.40;87.00;;;;;;5046719;28;20102;-67
2023/09/14 11:27:51;;;;;;;4.15;1.00;;;22.40;86.80;;;;;;5035701;28;20119;-68
2023/09/14 11:30:20;;;;;;;3.20;1.00;;;22.60;85.50;;;;;;5051312;28;20043;-67
2023/09/14 11:32:46;;;;;;;5.50;1.50;;;22.60;86.10;;;;;;5052495;28;20540;-67
2023/09/14 11:35:13;;;;;;;4.25;1.42;;;22.70;86.60;;;;;;5047490;28;20086;-68
2023/09/14 11:37:41;;;;;;;1.73;1.27;;;22.70;86.00;;;;;;5051661;28;20466;-67
2023/09/14 11:40:16;;;;;;;2.80;1.35;;;22.60;86.20;;;;;;5045776;28;20025;-68
2023/09/14 11:43:06;;;;;;;3.22;1.60;;;22.50;85.30;;;;;;5052585;28;20093;-68
2023/09/14 11:45:39;;;;;;;2.25;1.30;;;22.50;84.70;;;;;;5051321;28;20032;-67
2023/09/14 11:48:15;;;;;;;4.93;1.50;;;22.50;87.00;;;;;;5048801;28;20847;-68
2023/09/14 11:50:46;;;;;;;2.22;1.58;;;22.50;84.80;;;;;;5053315;28;20396;-68
2023/09/14 11:53:17;;;;;;;3.08;1.30;;;22.40;84.40;;;;;;5047308;28;20044;-68
2023/09/14 11:55:44;;;;;;;2.17;1.27;;;22.30;86.60;;;;;;5053199;28;20021;-67
2023/09/14 11:58:14;;;;;;;4.10;1.50;;;22.30;85.70;;;;;;5045088;28;20413;-68
2023/09/14 12:00:44;;;;;;;2.63;1.40;;;22.30;86.20;;;;;;5047162;28;20471;-67
2023/09/14 12:03:10;;;;;;;3.00;1.25;;;22.40;86.40;;;;;;5055240;28;20028;-68
2023/09/14 12:05:36;;;;;;;2.88;1.15;;;22.30;83.60;;;;;;5049376;28;20468;-67
2023/09/14 12:08:15;;;;;;;5.30;1.42;;;22.30;82.70;;;;;;5052439;28;20104;-68
2023/09/14 12:10:42;;;;;;;3.78;1.10;;;22.30;83.20;;;;;;5045208;28;20124;-68
2023/09/14 12:13:16;;;;;;;3.15;1.10;;;22.40;84.10;;;;;;5048316;28;20086;-67
2023/09/14 12:15:44;;;;;;;6.03;1.40;;;22.40;83.80;;;;;;5043957;28;20646;-68
2023/09/14 12:18:10;;;;;;;2.75;1.20;;;22.40;83.60;;;;;;5045493;28;20025;-67
2023/09/14 12:20:41;;;;;;;3.15;1.23;;;22.50;83.20;;;;;;5046292;28;20051;-68
2023/09/14 12:23:11;;;;;;;3.10;1.20;;;22.50;81.70;;;;;;5047887;28;20029;-67
2023/09/14 12:25:38;;;;;;;3.47;1.20;;;22.40;82.40;;;;;;5049939;28;20104;-68
2023/09/14 12:28:07;;;;;;;1.55;1.00;;;22.40;80.80;;;;;;5055391;28;20032;-68
2023/09/14 12:30:34;;;;;;;1.70;1.15;;;22.30;80.30;;;;;;5054987;28;20313;-68
2023/09/14 12:33:02;;;;;;;1.90;1.10;;;22.20;81.50;;;;;;5056498;28;20032;-68
2023/09/14 12:35:29;;;;;;;4.80;1.45;;;22.20;78.40;;;;;;5049346;28;20055;-68
2023/09/14 12:38:06;;;;;;;5.03;1.13;;;22.20;80.60;;;;;;5038363;28;20106;-68
2023/09/14 12:40:36;;;;;;;2.95;1.45;;;22.20;80.70;;;;;;5048876;28;20028;-68
2023/09/14 12:43:07;;;;;;;4.68;1.45;;;22.20;78.90;;;;;;5047358;28;20491;-68
2023/09/14 12:45:33;;;;;;;2.75;1.48;;;22.20;79.10;;;;;;5043226;28;20107;-68
2023/09/14 12:48:03;;;;;;;2.20;1.25;;;22.20;79.20;;;;;;5047876;28;20434;-68
2023/09/14 12:50:30;;;;;;;5.82;1.23;;;22.10;78.10;;;;;;5044958;28;20179;-68